Time;durP1;ratioP1;P1;durP2;ratioP2;P2;SDS_P1;SDS_P2;PMS_P1;PMS_P2;Temp;Humidity;BMP_temperature;BMP_pressure;BME280_temperature;BME280_humidity;BME280_pressure;Samples;Min_cycle;Max_cycle;Signal;HPM_P1;HPM_P2
2022/08/12 00:43:43;;;;;;;3.47;2.20;;;;;;;15.74;70.93;100942.56;5014189;28;20103;-83
2022/08/12 00:48:52;;;;;;;2.95;2.20;;;;;;;15.93;70.23;100937.97;5014060;28;20083;-82
2022/08/12 00:51:18;;;;;;;3.60;2.28;;;;;;;16.00;70.36;100933.84;5003048;28;20026;-83
2022/08/12 00:53:44;;;;;;;3.00;2.35;;;;;;;16.02;69.99;100934.88;5014043;28;20034;-84
2022/08/12 00:56:09;;;;;;;4.70;2.55;;;;;;;16.11;69.80;100939.63;4998383;28;20029;-84
2022/08/12 00:58:36;;;;;;;5.65;2.28;;;;;;;16.18;69.27;100944.13;5014379;28;20097;-83
2022/08/12 01:01:06;;;;;;;3.53;2.40;;;;;;;16.16;69.39;100926.53;4998345;28;20029;-83
2022/08/12 01:11:51;;;;;;;3.92;2.38;;;;;;;16.35;67.87;100931.34;5014349;28;20127;-83
2022/08/12 01:14:18;;;;;;;2.85;2.42;;;;;;;16.39;67.88;100937.69;4997073;28;20509;-84
2022/08/12 01:16:45;;;;;;;3.67;2.67;;;;;;;16.40;68.27;100924.06;5014620;28;20018;-83
2022/08/12 01:19:11;;;;;;;4.68;2.10;;;;;;;16.42;68.09;100930.06;4996998;28;20459;-83
2022/08/12 01:21:55;;;;;;;4.00;2.28;;;;;;;16.38;68.45;100935.31;4997096;28;20532;-84
2022/08/12 01:24:47;;;;;;;3.35;2.55;;;;;;;16.36;68.65;100930.06;5013381;28;20033;-83
2022/08/12 01:27:13;;;;;;;3.50;2.17;;;;;;;16.35;68.62;100927.72;4996435;28;20022;-83
2022/08/12 01:29:43;;;;;;;3.08;2.15;;;;;;;16.30;68.33;100928.47;5012717;28;20504;-83
2022/08/12 01:32:11;;;;;;;2.72;2.35;;;;;;;16.34;68.51;100926.13;4996393;28;20022;-83
2022/08/12 01:34:39;;;;;;;5.63;3.10;;;;;;;16.21;68.74;100911.38;5012576;28;20044;-83
2022/08/12 01:37:06;;;;;;;4.45;3.10;;;;;;;16.33;68.85;100933.19;4996253;28;20022;-83
2022/08/12 01:39:37;;;;;;;3.08;2.75;;;;;;;16.33;68.89;100922.44;4996190;28;20136;-83
2022/08/12 01:42:10;;;;;;;4.22;2.50;;;;;;;16.30;68.64;100920.63;4996138;28;20548;-84
2022/08/12 01:44:36;;;;;;;5.03;3.03;;;;;;;16.36;69.11;100937.91;4996184;28;20037;-83
2022/08/12 01:47:10;;;;;;;4.28;2.95;;;;;;;16.37;68.87;100931.63;4996092;28;20030;-83
2022/08/12 01:49:39;;;;;;;5.72;3.13;;;;;;;16.38;68.76;100927.44;5011678;28;20061;-82
2022/08/12 01:52:06;;;;;;;5.65;2.65;;;;;;;16.31;68.93;100918.50;5014002;28;20105;-83
2022/08/12 01:54:42;;;;;;;3.78;2.45;;;;;;;16.34;69.30;100937.66;4996023;28;20411;-82
2022/08/12 01:57:09;;;;;;;4.35;2.75;;;;;;;16.35;69.34;100937.13;5012596;28;20046;-83
2022/08/12 01:59:55;;;;;;;7.15;3.13;;;;;;;16.34;69.44;100940.56;5012551;28;20029;-84
2022/08/12 02:02:38;;;;;;;3.80;2.40;;;;;;;16.32;69.77;100934.50;5012430;28;20053;-82
2022/08/12 02:11:22;;;;;;;3.27;2.60;;;;;;;16.26;70.33;100939.44;5012896;28;20040;-86
2022/08/12 02:14:00;;;;;;;8.35;3.20;;;;;;;16.23;70.60;100941.28;5012735;28;20107;-83
2022/08/12 02:16:29;;;;;;;3.15;2.45;;;;;;;16.21;70.88;100943.09;5012270;28;20026;-82
2022/08/12 02:19:02;;;;;;;3.63;2.90;;;;;;;16.16;71.38;100941.75;5013714;28;20493;-83
2022/08/12 02:21:37;;;;;;;6.30;2.60;;;;;;;16.12;71.51;100944.09;5012307;28;20021;-84
2022/08/12 02:24:03;;;;;;;3.90;3.08;;;;;;;16.05;71.98;100939.63;4995822;28;20030;-83
2022/08/12 02:26:31;;;;;;;4.03;2.72;;;;;;;16.06;72.05;100940.38;5012380;28;20053;-84
2022/08/12 02:28:58;;;;;;;3.65;3.00;;;;;;;16.02;72.19;100937.75;4995792;28;20113;-82
2022/08/12 02:31:25;;;;;;;3.03;2.60;;;;;;;15.98;72.55;100933.53;5012189;28;20105;-83
2022/08/12 02:33:51;;;;;;;6.00;3.10;;;;;;;15.90;73.01;100930.38;4995626;28;20022;-83
2022/08/12 02:36:17;;;;;;;5.07;3.47;;;;;;;15.89;73.34;100946.09;5013223;28;20032;-83
2022/08/12 02:38:43;;;;;;;5.55;3.13;;;;;;;15.81;73.50;100924.78;4995650;28;20040;-83
2022/08/12 02:41:10;;;;;;;7.30;2.95;;;;;;;15.85;73.65;100945.53;5012136;28;20382;-84
2022/08/12 02:43:43;;;;;;;3.95;2.80;;;;;;;15.79;74.27;100932.38;5012103;28;20037;-84
2022/08/12 02:46:10;;;;;;;4.65;3.28;;;;;;;15.78;74.27;100922.94;5012254;28;20113;-84
2022/08/12 02:48:49;;;;;;;3.45;3.13;;;;;;;15.73;74.77;100931.56;4995375;28;20025;-84
2022/08/12 02:51:19;;;;;;;5.15;3.17;;;;;;;15.69;74.91;100929.72;4995559;28;20133;-83
2022/08/12 02:53:46;;;;;;;5.22;3.67;;;;;;;15.68;75.12;100927.31;4995754;28;20018;-83
2022/08/12 02:56:12;;;;;;;5.93;2.88;;;;;;;15.55;75.20;100896.06;4995589;28;20390;-84
2022/08/12 02:58:38;;;;;;;4.40;3.20;;;;;;;15.67;75.33;100915.00;4995755;28;20056;-82
2022/08/12 03:01:07;;;;;;;4.32;3.35;;;;;;;15.68;75.66;100918.69;4995697;28;20540;-83
2022/08/12 03:03:33;;;;;;;4.88;3.33;;;;;;;15.63;75.44;100916.56;4999356;28;20455;-83
2022/08/12 03:06:01;;;;;;;6.13;3.88;;;;;;;15.59;75.75;100913.91;4998684;28;20018;-83
2022/08/12 03:08:35;;;;;;;4.90;3.45;;;;;;;15.69;75.83;100926.81;4999007;28;20037;-84
2022/08/12 03:11:03;;;;;;;3.67;3.30;;;;;;;15.71;75.82;100917.69;5015413;28;20045;-84
2022/08/12 03:13:31;;;;;;;4.03;3.53;;;;;;;15.71;76.18;100914.78;5015129;28;20046;-83
2022/08/12 03:15:57;;;;;;;5.20;3.03;;;;;;;15.73;76.05;100920.03;4998844;28;20026;-84
2022/08/12 03:18:30;;;;;;;3.90;3.47;;;;;;;15.74;75.76;100910.88;4998774;28;20056;-83
2022/08/12 03:20:57;;;;;;;4.57;3.28;;;;;;;15.74;75.67;100905.13;4998681;28;20121;-83
2022/08/12 03:23:23;;;;;;;5.50;3.45;;;;;;;15.72;75.89;100910.59;4998737;28;20033;-82
2022/08/12 03:25:50;;;;;;;4.07;3.50;;;;;;;15.72;76.13;100904.81;4998849;28;20030;-84
2022/08/12 03:28:49;;;;;;;5.20;4.25;;;;;;;15.68;76.25;100898.50;5014828;28;20109;-82
2022/08/12 03:31:05;;;;;;;7.80;3.90;;;;;;;15.72;76.45;100907.69;5014607;28;20030;-82
2022/08/12 03:33:36;;;;;;;5.72;3.85;;;;;;;15.72;76.43;100895.38;5014830;28;20037;-83
2022/08/12 03:36:05;;;;;;;7.28;3.53;;;;;;;15.76;76.60;100905.38;5016429;28;20025;-82
2022/08/12 03:38:37;;;;;;;6.55;3.75;;;;;;;15.72;76.44;100898.25;5014723;28;20105;-82
2022/08/12 03:41:36;;;;;;;4.18;3.50;;;;;;;15.80;76.30;100908.81;5014548;28;20418;-83
2022/08/12 04:00:45;;;;;;;6.55;3.65;;;;;;;15.95;76.24;100923.84;5014942;28;20041;-83
2022/08/12 04:05:54;;;;;;;7.18;3.78;;;;;;;16.04;76.07;100929.41;5014171;28;20119;-84
2022/08/12 04:08:23;;;;;;;4.75;3.28;;;;;;;16.12;75.78;100935.44;5014164;28;20053;-83
2022/08/12 04:13:33;;;;;;;6.38;3.53;;;;;;;16.20;75.22;100930.00;5013741;28;20125;-83
2022/08/12 04:16:00;;;;;;;4.38;3.30;;;;;;;16.26;75.07;100940.22;5015262;28;20383;-83
2022/08/12 04:18:27;;;;;;;4.80;3.10;;;;;;;16.35;74.69;100927.72;4997730;28;20071;-83
2022/08/12 04:20:53;;;;;;;4.72;3.30;;;;;;;16.49;74.55;100939.03;5014390;28;20030;-84
2022/08/12 04:23:18;;;;;;;3.95;3.13;;;;;;;16.61;74.22;100951.41;5014092;28;20112;-85
2022/08/12 04:25:44;;;;;;;7.85;3.40;;;;;;;16.74;74.00;100948.84;4997542;28;20026;-84
2022/08/12 04:28:11;;;;;;;4.35;3.00;;;;;;;16.88;73.29;100947.03;5013878;28;20022;-84
2022/08/12 04:30:38;;;;;;;5.60;3.30;;;;;;;16.98;72.55;100954.16;5015129;28;20033;-84
2022/08/12 04:33:08;;;;;;;6.55;3.50;;;;;;;16.93;72.49;100934.72;5016645;28;20093;-83
2022/08/12 04:35:34;;;;;;;3.92;2.88;;;;;;;17.11;71.90;100959.41;4999953;28;20045;-84
2022/08/12 04:37:59;;;;;;;5.72;3.03;;;;;;;17.18;71.95;100950.25;5017248;28;20089;-82
2022/08/12 04:40:28;;;;;;;4.15;2.78;;;;;;;17.28;71.28;100960.25;5016283;28;20018;-81
2022/08/12 04:42:54;;;;;;;7.95;3.65;;;;;;;17.35;71.21;100946.03;5015736;28;20039;-84
2022/08/12 04:45:20;;;;;;;5.32;3.00;;;;;;;17.60;70.45;100960.78;5015261;28;20076;-82
2022/08/12 04:47:46;;;;;;;4.13;3.00;;;;;;;17.69;69.94;100938.16;5018657;28;20370;-85
2022/08/12 04:50:16;;;;;;;4.43;2.70;;;;;;;17.90;69.04;100943.66;5016064;28;20041;-86
2022/08/12 04:52:41;;;;;;;3.40;3.08;;;;;;;17.95;67.93;100939.97;5038643;28;20012;-85
2022/08/12 04:55:15;;;;;;;4.90;2.92;;;;;;;17.82;67.50;100932.66;5023736;28;20065;-85
2022/08/12 04:57:40;;;;;;;3.22;2.65;;;;;;;17.91;67.70;100962.59;5033477;28;20021;-85
2022/08/12 05:00:11;;;;;;;4.60;2.50;;;;;;;17.73;67.71;100952.38;5038783;28;20018;-84
2022/08/12 05:02:37;;;;;;;5.10;3.10;;;;;;;17.63;68.21;100951.88;5037367;28;20013;-86
2022/08/12 05:05:03;;;;;;;2.90;2.58;;;;;;;17.47;68.39;100946.09;5030950;28;20040;-87
2022/08/12 05:07:29;;;;;;;4.13;2.85;;;;;;;17.51;68.67;100950.28;5019160;28;20029;-85
2022/08/12 05:09:54;;;;;;;4.47;2.85;;;;;;;17.56;69.09;100945.81;5018851;28;20022;-87
2022/08/12 05:12:22;;;;;;;3.72;2.88;;;;;;;17.59;68.56;100918.72;5034503;28;20463;-85
2022/08/12 05:14:49;;;;;;;5.38;2.53;;;;;;;17.91;68.02;100934.47;5037642;28;20140;-85
2022/08/12 05:17:15;;;;;;;4.93;2.58;;;;;;;18.07;67.37;100932.84;5021314;28;20045;-86
2022/08/12 05:19:41;;;;;;;8.80;4.82;;;;;;;18.13;67.12;100928.59;5037412;28;20045;-87
2022/08/12 05:22:06;;;;;;;3.78;2.30;;;;;;;18.14;66.72;100932.28;5008978;28;20029;-86
2022/08/12 05:24:31;;;;;;;4.68;2.22;;;;;;;18.01;66.46;100934.97;5021746;28;20028;-86
2022/08/12 05:26:57;;;;;;;6.32;2.55;;;;;;;18.00;66.70;100933.38;5002913;28;20049;-84
2022/08/12 05:29:22;;;;;;;2.97;2.50;;;;;;;17.87;66.33;100931.06;5016123;28;20016;-85
2022/08/12 05:31:48;;;;;;;2.60;2.35;;;;;;;17.79;66.33;100919.22;5038344;28;20010;-85
2022/08/12 05:34:14;;;;;;;5.32;3.03;;;;;;;17.94;66.52;100929.72;5036782;28;20025;-86
2022/08/12 05:36:43;;;;;;;2.70;2.42;;;;;;;18.02;66.32;100924.97;5033746;28;20034;-86
2022/08/12 05:39:08;;;;;;;10.98;3.65;;;;;;;18.14;65.69;100926.50;5015143;28;20021;-87
2022/08/12 05:41:35;;;;;;;8.15;3.25;;;;;;;18.22;65.33;100936.22;4997407;28;20084;-87
2022/08/12 05:44:08;;;;;;;7.05;2.60;;;;;;;18.28;65.18;100934.84;5013876;28;20022;-84
2022/08/12 05:46:35;;;;;;;4.40;2.30;;;;;;;18.32;64.80;100934.63;4997475;28;20055;-86
2022/08/12 05:49:01;;;;;;;8.43;2.45;;;;;;;18.34;64.61;100937.75;5013263;28;20042;-85
2022/08/12 05:51:30;;;;;;;17.40;3.72;;;;;;;18.37;63.96;100928.03;5014752;28;20030;-87
2022/08/12 05:53:57;;;;;;;15.02;4.13;;;;;;;18.48;64.39;100927.97;5013441;28;20036;-85
2022/08/12 05:56:31;;;;;;;10.88;2.92;;;;;;;18.56;64.11;100928.22;5013347;28;20040;-86
2022/08/12 05:58:58;;;;;;;7.00;2.80;;;;;;;18.66;63.43;100930.25;4996919;28;20076;-86
2022/08/12 06:01:25;;;;;;;3.67;2.25;;;;;;;18.76;63.07;100938.63;5013935;28;20080;-87
2022/08/12 06:03:51;;;;;;;7.30;2.63;;;;;;;18.83;62.88;100930.16;4997115;28;20026;-86
2022/08/12 06:06:18;;;;;;;4.75;2.13;;;;;;;18.87;62.75;100930.66;5014785;28;20563;-88
2022/08/12 06:08:47;;;;;;;2.95;2.20;;;;;;;18.99;62.23;100943.75;5015206;28;20475;-86
2022/08/12 06:11:17;;;;;;;2.30;2.08;;;;;;;19.08;62.31;100945.53;5013875;28;20079;-85
2022/08/12 06:13:43;;;;;;;4.80;2.03;;;;;;;19.23;61.56;100948.88;4997225;28;20026;-87
2022/08/12 06:16:14;;;;;;;6.60;2.15;;;;;;;19.42;61.24;100949.78;4998311;28;20030;-86
2022/08/12 06:18:41;;;;;;;3.67;2.10;;;;;;;19.54;60.52;100939.66;5013543;28;20076;-86
2022/08/12 06:21:11;;;;;;;15.48;4.53;;;;;;;19.71;60.08;100941.63;4996818;28;20379;-87
2022/08/12 06:23:37;;;;;;;2.30;1.80;;;;;;;19.77;59.26;100936.53;5013236;28;20033;-87
2022/08/12 06:26:06;;;;;;;4.55;2.10;;;;;;;19.92;59.02;100936.91;4996611;28;20030;-86
2022/08/12 06:28:31;;;;;;;5.05;2.28;;;;;;;20.00;58.57;100932.13;5014156;28;20034;-86
2022/08/12 06:30:57;;;;;;;8.15;2.53;;;;;;;20.12;58.08;100942.25;5012877;28;20379;-85
2022/08/12 06:33:23;;;;;;;4.18;1.90;;;;;;;20.34;57.39;100944.91;5013684;28;20033;-86
2022/08/12 06:35:49;;;;;;;2.90;1.63;;;;;;;22.01;54.50;100936.53;5000265;28;20038;-85
2022/08/12 06:38:19;;;;;;;8.52;2.83;;;;;;;25.03;47.72;100931.31;5018579;28;20152;-86
2022/08/12 06:43:30;;;;;;;4.53;2.00;;;;;;;31.16;34.41;100942.31;5018222;28;20096;-87
2022/08/12 06:45:56;;;;;;;4.68;2.50;;;;;;;33.21;30.22;100951.72;5018347;28;20038;-87
2022/08/12 06:48:26;;;;;;;5.38;2.13;;;;;;;35.07;27.04;100964.28;5017741;28;20026;-88
2022/08/12 06:50:53;;;;;;;4.43;1.73;;;;;;;36.48;25.08;100967.00;5017972;28;20394;-87
2022/08/12 06:53:18;;;;;;;4.05;1.42;;;;;;;37.82;23.05;100981.31;5002456;28;20025;-87
2022/08/12 06:55:44;;;;;;;2.75;1.25;;;;;;;38.75;21.54;100979.69;5004560;28;20059;-87
2022/08/12 06:58:10;;;;;;;3.83;1.60;;;;;;;39.76;20.84;100983.94;5020381;28;20022;-88
2022/08/12 07:00:36;;;;;;;1.85;1.65;;;;;;;40.52;19.62;100985.41;5002522;28;20026;-89
2022/08/12 07:03:04;;;;;;;1.20;1.10;;;;;;;41.33;18.88;100982.25;5004075;28;20096;-88
2022/08/12 07:05:29;;;;;;;2.05;1.65;;;;;;;42.17;17.91;100985.66;5002130;28;20057;-89
2022/08/12 07:07:58;;;;;;;8.07;3.17;;;;;;;43.11;17.61;101001.88;5002806;28;20466;-89
2022/08/12 07:10:26;;;;;;;42.30;7.45;;;;;;;43.45;17.30;100990.72;5019688;28;20041;-88
2022/08/12 07:12:55;;;;;;;10.55;2.05;;;;;;;43.64;17.21;100994.94;5018397;28;20494;-88
2022/08/12 07:15:24;;;;;;;3.38;1.25;;;;;;;44.43;16.34;101002.75;5001737;28;20459;-87
2022/08/12 07:18:36;;;;;;;3.83;1.08;;;;;;;44.76;14.97;101004.94;5018253;28;20067;-88
2022/08/12 07:20:46;;;;;;;1.45;1.00;;;;;;;45.26;15.46;100989.28;5018328;28;20548;-88
2022/08/12 07:23:13;;;;;;;3.78;1.30;;;;;;;45.38;14.44;101000.78;5018086;28;20030;-86
2022/08/12 07:25:39;;;;;;;3.63;1.08;;;;;;;45.39;15.07;100990.97;5017738;28;20037;-87
2022/08/12 07:28:22;;;;;;;5.85;1.60;;;;;;;45.50;14.78;100998.72;5001994;28;20022;-87
2022/08/12 07:30:48;;;;;;;4.95;1.42;;;;;;;45.86;14.70;100979.63;5001994;28;20029;-87
2022/08/12 07:33:15;;;;;;;6.57;1.48;;;;;;;46.11;14.08;100992.81;5017411;28;20029;-87
2022/08/12 07:35:44;;;;;;;1.58;1.30;;;;;;;45.61;14.64;100982.28;5000808;28;20040;-87
2022/08/12 07:38:32;;;;;;;17.63;2.42;;;;;;;45.15;14.49;100985.28;5018288;28;20471;-87
2022/08/12 07:41:04;;;;;;;11.07;2.28;;;;;;;45.10;15.39;100976.88;5001301;28;20025;-88
2022/08/12 07:43:32;;;;;;;2.60;1.25;;;;;;;44.99;15.01;100975.94;5018577;28;20068;-87
2022/08/12 07:45:59;;;;;;;3.58;1.20;;;;;;;45.89;14.67;100972.88;5019171;28;20022;-87
2022/08/12 07:48:25;;;;;;;3.85;1.20;;;;;;;46.09;13.99;100983.72;5016917;28;20055;-87
2022/08/12 07:50:51;;;;;;;6.45;1.67;;;;;;;46.66;13.88;100976.06;5019232;28;20018;-86
2022/08/12 07:53:16;;;;;;;4.20;1.48;;;;;;;46.97;13.70;100987.00;5039685;28;20026;-86
2022/08/12 07:55:42;;;;;;;5.97;2.40;;;;;;;47.03;13.16;100981.00;5021385;28;20380;-88
2022/08/12 07:58:07;;;;;;;2.92;1.10;;;;;;;46.45;13.36;100994.00;5036924;28;20010;-86
2022/08/12 08:00:34;;;;;;;1.05;0.95;;;;;;;46.09;13.41;100975.41;5017198;28;20575;-84
2022/08/12 08:03:00;;;;;;;2.92;1.30;;;;;;;46.13;13.84;100975.47;5016516;28;20025;-87
2022/08/12 08:05:48;;;;;;;2.83;1.00;;;;;;;46.34;14.03;100976.50;5015719;28;20366;-87
2022/08/12 08:08:23;;;;;;;2.72;1.05;;;;;;;45.68;13.14;100986.16;5002710;28;20033;-89
2022/08/12 08:10:51;;;;;;;1.60;1.50;;;;;;;45.23;14.46;100978.59;5000077;28;20104;-87
2022/08/12 08:13:17;;;;;;;1.10;1.00;;;;;;;44.79;14.17;100982.34;5015991;28;20033;-88
2022/08/12 08:15:48;;;;;;;1.27;0.90;;;;;;;43.93;14.69;100967.03;4999060;28;20029;-86
2022/08/12 08:18:15;;;;;;;1.13;1.00;;;;;;;42.84;15.68;100949.28;5015482;28;20033;-88
2022/08/12 08:20:43;;;;;;;4.07;1.13;;;;;;;42.98;16.02;100949.63;5015803;28;20053;-89
2022/08/12 08:23:15;;;;;;;1.30;1.13;;;;;;;42.40;16.01;100945.81;5000077;28;20021;-88
2022/08/12 08:25:42;;;;;;;2.33;1.25;;;;;;;41.91;17.05;100937.59;4999343;28;20425;-87
2022/08/12 08:28:09;;;;;;;2.38;1.10;;;;;;;41.77;16.66;100937.13;5015551;28;20562;-87
2022/08/12 08:30:38;;;;;;;5.13;1.40;;;;;;;42.06;16.72;100923.75;5015483;28;20044;-87
2022/08/12 08:33:08;;;;;;;2.80;1.20;;;;;;;42.31;16.77;100941.78;5017096;28;20030;-86
2022/08/12 08:35:35;;;;;;;0.95;0.95;;;;;;;42.38;16.84;100939.72;4999020;28;20028;-87
2022/08/12 08:38:13;;;;;;;1.52;1.42;;;;;;;42.62;16.17;100940.38;5015218;28;20049;-88
2022/08/12 08:43:25;;;;;;;1.60;1.50;;;;;;;42.00;16.29;100948.38;5016268;28;20506;-87
2022/08/12 08:45:51;;;;;;;11.05;1.20;;;;;;;41.61;17.19;100936.66;5016266;28;20026;-87
2022/08/12 08:48:17;;;;;;;2.60;1.30;;;;;;;41.46;17.46;100933.19;5000421;28;20032;-87
2022/08/12 08:50:43;;;;;;;1.33;1.23;;;;;;;41.42;17.58;100924.00;5016572;28;20101;-86
2022/08/12 08:53:09;;;;;;;2.30;1.25;;;;;;;41.15;17.30;100924.66;5017485;28;20438;-86
2022/08/12 08:55:35;;;;;;;9.18;2.10;;;;;;;40.55;17.59;100930.06;5017596;28;20037;-85
2022/08/12 08:58:00;;;;;;;11.13;2.45;;;;;;;39.78;18.46;100917.41;5015968;28;20026;-85
2022/08/12 09:00:26;;;;;;;4.38;1.52;;;;;;;39.32;19.09;100914.06;4999110;28;20022;-85
2022/08/12 09:02:51;;;;;;;5.15;1.90;;;;;;;38.84;19.39;100897.88;4997696;28;20026;-86
2022/08/12 09:05:17;;;;;;;5.72;1.75;;;;;;;39.24;19.22;100918.97;4997779;28;20025;-85
2022/08/12 09:07:44;;;;;;;5.00;1.45;;;;;;;38.73;19.26;100910.84;4999172;28;20033;-87
2022/08/12 09:10:11;;;;;;;6.50;1.83;;;;;;;38.71;19.91;100904.00;4997682;28;20025;-85
2022/08/12 09:15:24;;;;;;;2.00;1.30;;;;;;;38.46;19.93;100908.13;5015719;28;20033;-86
2022/08/12 09:17:54;;;;;;;7.35;1.90;;;;;;;38.01;20.05;100912.09;5016182;28;20156;-85
2022/08/12 09:20:21;;;;;;;15.55;3.63;;;;;;;37.82;20.80;100906.69;5000697;28;20025;-86
2022/08/12 09:22:47;;;;;;;5.40;1.35;;;;;;;37.24;21.02;100914.34;5015908;28;20022;-85
2022/08/12 09:25:12;;;;;;;3.42;1.40;;;;;;;36.50;21.41;100905.31;5016191;28;20101;-87
2022/08/12 09:27:38;;;;;;;3.75;1.38;;;;;;;36.61;21.91;100901.44;5015799;28;20060;-86
2022/08/12 09:30:05;;;;;;;1.55;1.42;;;;;;;36.27;22.24;100903.38;5016323;28;20046;-88
2022/08/12 09:32:30;;;;;;;3.50;1.63;;;;;;;36.43;22.26;100904.22;4998868;28;20026;-89
2022/08/12 09:34:56;;;;;;;3.90;1.77;;;;;;;36.46;22.19;100899.16;5017351;28;20101;-86
2022/08/12 09:37:27;;;;;;;2.60;1.15;;;;;;;36.52;22.18;100889.78;4999551;28;20109;-86
2022/08/12 09:39:53;;;;;;;23.75;3.95;;;;;;;36.40;21.89;100904.75;5015464;28;20026;-87
2022/08/12 09:45:21;;;;;;;4.22;1.48;;;;;;;35.38;23.02;100900.63;5016587;28;20037;-86
2022/08/12 09:47:50;;;;;;;1.58;1.00;;;;;;;34.93;24.08;100895.06;5001644;28;20544;-85
2022/08/12 09:50:17;;;;;;;5.20;1.40;;;;;;;34.70;23.85;100889.25;5016676;28;20045;-86
2022/08/12 09:52:44;;;;;;;4.43;1.60;;;;;;;34.50;24.17;100885.03;5015777;28;20049;-85
2022/08/12 09:55:13;;;;;;;3.35;1.50;;;;;;;34.17;24.96;100876.34;5015917;28;20025;-85
2022/08/12 09:57:38;;;;;;;5.85;1.58;;;;;;;33.60;25.18;100878.69;4999385;28;20048;-86
2022/08/12 10:00:05;;;;;;;12.05;3.15;;;;;;;33.02;26.15;100882.34;4999207;28;20542;-86
2022/08/12 10:02:36;;;;;;;3.00;1.73;;;;;;;32.39;26.56;100870.63;5000017;28;20030;-88
2022/08/12 10:05:02;;;;;;;6.23;2.17;;;;;;;31.62;27.06;100865.16;5018098;28;20026;-84
2022/08/12 10:07:29;;;;;;;1.60;1.50;;;;;;;30.96;28.43;100868.50;5007261;28;20026;-88
2022/08/12 10:09:54;;;;;;;3.33;1.67;;;;;;;30.23;29.22;100873.97;5008114;28;20037;-89
2022/08/12 10:15:04;;;;;;;3.55;1.50;;;;;;;29.29;30.45;100859.09;5021097;28;20037;-86
2022/08/12 10:17:29;;;;;;;3.17;1.67;;;;;;;28.97;31.01;100850.53;5004339;28;20026;-85
2022/08/12 10:19:55;;;;;;;6.60;2.47;;;;;;;28.91;32.13;100858.88;5028142;28;20022;-91
2022/08/12 10:22:20;;;;;;;1.45;1.33;;;;;;;28.89;31.63;100853.59;5029589;28;20449;-88
2022/08/12 10:29:35;;;;;;;10.05;3.28;;;;;;;28.80;31.91;100860.97;5025627;28;20411;-88
2022/08/12 10:30:16;;;;;;;3.67;1.90;;;;;;;29.49;31.26;100845.22;5022730;28;20065;-90
2022/08/12 10:32:42;;;;;;;5.45;1.83;;;;;;;29.69;30.52;100843.91;5023748;28;20022;-89
2022/08/12 10:35:08;;;;;;;11.98;3.58;;;;;;;29.68;31.16;100834.28;5022782;28;20041;-90
2022/08/12 10:37:34;;;;;;;2.67;1.63;;;;;;;29.71;31.51;100844.84;5022096;28;20076;-92
2022/08/12 10:39:59;;;;;;;4.18;1.83;;;;;;;29.72;31.51;100839.75;5023449;28;20022;-92
2022/08/12 10:45:09;;;;;;;29.23;5.50;;;;;;;29.81;31.05;100830.16;5024301;28;20080;-88
2022/08/12 10:47:36;;;;;;;6.35;2.30;;;;;;;29.73;31.30;100835.38;5034862;28;20017;-87
2022/08/12 10:50:04;;;;;;;1.55;1.45;;;;;;;29.82;30.76;100830.94;5024426;28;20034;-87
2022/08/12 10:52:30;;;;;;;3.90;1.85;;;;;;;29.96;30.97;100834.97;5010827;28;20030;-88
2022/08/12 10:54:56;;;;;;;2.90;1.70;;;;;;;29.92;30.52;100805.19;5035457;28;20032;-86
2022/08/12 10:57:25;;;;;;;6.35;2.30;;;;;;;29.87;30.21;100821.00;5038290;28;20030;-88
2022/08/12 10:59:58;;;;;;;1.20;1.15;;;;;;;29.75;30.55;100828.88;5021232;28;20076;-88
2022/08/12 11:02:26;;;;;;;2.90;1.60;;;;;;;29.45;31.01;100813.28;5021962;28;20084;-89
2022/08/12 11:04:56;;;;;;;2.20;1.80;;;;;;;29.07;31.04;100795.47;5022212;28;20108;-89
2022/08/12 11:07:23;;;;;;;3.40;1.87;;;;;;;28.90;32.05;100819.81;5004746;28;20022;-88
2022/08/12 11:09:48;;;;;;;2.50;1.75;;;;;;;28.78;32.78;100825.50;5019985;28;20287;-88
2022/08/12 11:12:14;;;;;;;2.72;1.73;;;;;;;28.75;32.32;100814.16;5023180;28;20030;-87
2022/08/12 11:14:41;;;;;;;2.13;1.63;;;;;;;28.48;32.00;100792.78;5022105;28;20078;-88
2022/08/12 11:17:08;;;;;;;3.65;2.00;;;;;;;28.38;32.01;100817.00;5020019;28;20030;-89
2022/08/12 11:19:35;;;;;;;2.17;1.98;;;;;;;28.30;32.60;100798.66;5020539;28;20025;-87
2022/08/12 11:22:02;;;;;;;3.22;1.60;;;;;;;28.27;32.51;100813.81;5017788;28;20022;-88
2022/08/12 11:24:28;;;;;;;2.55;1.95;;;;;;;28.29;32.84;100808.84;5020513;28;20057;-88
2022/08/12 11:26:54;;;;;;;3.70;1.70;;;;;;;28.28;32.75;100798.50;5022000;28;20022;-88
2022/08/12 11:29:21;;;;;;;6.00;1.60;;;;;;;28.41;31.97;100797.34;5021199;28;20121;-87
2022/08/12 11:31:47;;;;;;;3.00;1.58;;;;;;;28.79;31.87;100800.56;5020492;28;20029;-85
2022/08/12 11:34:12;;;;;;;1.38;1.25;;;;;;;29.15;31.85;100790.22;5019102;28;20022;-88
2022/08/12 11:36:39;;;;;;;1.52;1.42;;;;;;;29.41;31.82;100789.41;5005621;28;20018;-87
2022/08/12 11:39:05;;;;;;;3.45;1.70;;;;;;;29.37;29.99;100783.19;5021144;28;20048;-88
2022/08/12 11:41:32;;;;;;;2.30;1.45;;;;;;;29.31;30.27;100779.75;5020550;28;20026;-88
2022/08/12 11:43:59;;;;;;;4.00;2.22;;;;;;;29.15;30.96;100778.44;5003771;28;20026;-86
2022/08/12 11:46:24;;;;;;;5.80;1.85;;;;;;;29.08;31.43;100774.25;5018137;28;20025;-88
2022/08/12 11:48:49;;;;;;;2.92;1.67;;;;;;;29.14;31.12;100768.06;5019190;28;20041;-87
2022/08/12 11:51:15;;;;;;;2.33;2.17;;;;;;;29.26;31.71;100766.09;5020155;28;20137;-88
2022/08/12 11:53:40;;;;;;;2.95;1.73;;;;;;;29.48;31.26;100761.19;5017858;28;20054;-88
2022/08/12 11:56:06;;;;;;;7.28;2.42;;;;;;;29.21;30.58;100765.00;5000631;28;20030;-87
2022/08/12 11:58:32;;;;;;;7.47;2.17;;;;;;;28.98;31.51;100775.56;5001924;28;20168;-87
2022/08/12 12:00:58;;;;;;;8.57;3.00;;;;;;;28.60;31.16;100764.38;5018571;28;20025;-86
2022/08/12 12:03:24;;;;;;;6.22;3.58;;;;;;;28.24;31.82;100759.16;5018917;28;20044;-87
2022/08/12 12:05:49;;;;;;;2.20;1.60;;;;;;;28.11;31.22;100771.28;5019642;28;20085;-86
2022/08/12 12:08:21;;;;;;;4.50;1.80;;;;;;;27.82;31.34;100738.69;5021752;28;20379;-88
2022/08/12 12:10:49;;;;;;;2.25;1.63;;;;;;;27.80;32.00;100771.59;5003538;28;20108;-86
2022/08/12 12:13:14;;;;;;;2.80;1.67;;;;;;;27.77;32.22;100757.34;5006139;28;20056;-87
2022/08/12 12:15:39;;;;;;;4.82;1.55;;;;;;;27.92;31.90;100755.06;5021246;28;20018;-87
2022/08/12 12:18:05;;;;;;;7.55;1.67;;;;;;;28.07;31.73;100754.09;5023006;28;20030;-87
2022/08/12 12:20:30;;;;;;;1.77;1.67;;;;;;;28.13;31.50;100745.78;5039061;28;20037;-87
2022/08/12 12:22:56;;;;;;;2.35;1.70;;;;;;;28.13;32.13;100760.47;5038420;28;20052;-87
2022/08/12 12:25:21;;;;;;;1.98;1.75;;;;;;;28.21;31.51;100757.44;5026413;28;20380;-86
2022/08/12 12:27:53;;;;;;;4.20;1.60;;;;;;;28.23;31.88;100749.56;5003685;28;20023;-87
2022/08/12 12:30:19;;;;;;;3.15;1.52;;;;;;;28.26;32.57;100753.44;5004938;28;20105;-86
2022/08/12 12:32:45;;;;;;;2.65;1.98;;;;;;;28.21;31.82;100752.34;5036586;28;20049;-87
2022/08/12 12:35:10;;;;;;;2.55;1.98;;;;;;;28.06;32.45;100757.63;5022584;28;20017;-87
2022/08/12 12:37:50;;;;;;;5.30;2.42;;;;;;;27.91;31.89;100750.56;5022832;28;20013;-86
2022/08/12 12:40:15;;;;;;;2.65;1.75;;;;;;;27.87;32.55;100753.13;5033551;28;20029;-88
2022/08/12 12:42:40;;;;;;;4.32;1.67;;;;;;;27.94;31.75;100757.38;5017511;28;20026;-88
2022/08/12 12:45:06;;;;;;;4.50;1.65;;;;;;;27.88;30.99;100731.19;5015421;28;20462;-87
2022/08/12 12:47:32;;;;;;;2.17;1.92;;;;;;;27.98;31.39;100740.09;5015189;28;20065;-87
2022/08/12 12:49:57;;;;;;;1.58;1.48;;;;;;;28.13;31.41;100736.19;5015375;28;20046;-87
2022/08/12 12:52:22;;;;;;;2.83;1.58;;;;;;;28.37;30.87;100729.38;5016559;28;20034;-87
2022/08/12 12:54:56;;;;;;;3.40;1.80;;;;;;;28.53;30.06;100727.81;5015653;28;20018;-87
2022/08/12 12:57:23;;;;;;;2.13;1.67;;;;;;;28.83;30.50;100726.56;5016948;28;20038;-86
2022/08/12 13:00:13;;;;;;;1.80;1.40;;;;;;;29.05;30.37;100715.81;5017941;28;20161;-88
2022/08/12 13:02:38;;;;;;;4.43;1.73;;;;;;;29.17;30.83;100737.41;5019069;28;20418;-87
2022/08/12 13:05:03;;;;;;;3.00;1.63;;;;;;;28.91;31.39;100747.81;5018289;28;20052;-86
2022/08/12 13:07:29;;;;;;;1.98;1.60;;;;;;;28.67;31.16;100746.63;5016018;28;20088;-87
2022/08/12 13:09:54;;;;;;;5.07;1.90;;;;;;;28.41;31.47;100753.25;5016842;28;20040;-86